Time;durP1;ratioP1;P1;durP2;ratioP2;P2;SDS_P1;SDS_P2;PMS_P1;PMS_P2;Temp;Humidity;BMP_temperature;BMP_pressure;BME280_temperature;BME280_humidity;BME280_pressure;Samples;Min_cycle;Max_cycle;Signal;HPM_P1;HPM_P2
2021/04/28 00:03:45;;;;;;;10.60;5.27;;;7.40;99.90;;;;;;20833186;28;20052;-75
2021/04/28 00:13:46;;;;;;;11.70;5.33;;;6.90;99.90;;;;;;20831612;28;20163;-75
2021/04/28 00:23:47;;;;;;;15.50;7.70;;;6.40;99.90;;;;;;20830936;28;20495;-75
2021/04/28 00:33:49;;;;;;;10.70;5.43;;;6.30;99.90;;;;;;20830331;28;20488;-75
2021/04/28 00:43:50;;;;;;;11.45;5.90;;;6.00;99.90;;;;;;20828288;28;20045;-75
2021/04/28 00:53:51;;;;;;;12.00;6.27;;;6.00;99.90;;;;;;20826433;28;20577;-75
2021/04/28 01:03:52;;;;;;;15.37;6.50;;;5.80;99.90;;;;;;20826731;28;20040;-74
2021/04/28 01:13:53;;;;;;;14.37;6.43;;;5.90;99.90;;;;;;20825701;28;20373;-75
2021/04/28 01:23:55;;;;;;;10.13;5.75;;;6.00;99.90;;;;;;20825816;28;20036;-75
2021/04/28 01:34:01;;;;;;;11.53;5.80;;;6.00;99.90;;;;;;20824510;28;20056;-75
2021/04/28 01:44:03;;;;;;;14.43;6.05;;;6.10;99.90;;;;;;20823997;28;20291;-75
2021/04/28 01:54:08;;;;;;;14.88;6.45;;;6.30;99.90;;;;;;20824006;28;20492;-75
2021/04/28 02:04:09;;;;;;;9.43;6.00;;;6.00;99.90;;;;;;20824058;28;20260;-75
2021/04/28 02:14:16;;;;;;;10.95;5.35;;;6.20;99.90;;;;;;20824032;28;20114;-75
2021/04/28 02:24:43;;;;;;;20.50;6.40;;;6.30;99.90;;;;;;20822371;28;20084;-75
2021/04/28 02:34:47;;;;;;;14.10;7.20;;;6.50;99.90;;;;;;20805976;28;20321;-75
2021/04/28 02:44:59;;;;;;;10.13;5.90;;;6.60;99.90;;;;;;20821709;28;20030;-75
2021/04/28 02:55:01;;;;;;;14.55;6.22;;;6.60;99.90;;;;;;20821272;28;20034;-75
2021/04/28 03:05:04;;;;;;;11.05;5.90;;;6.70;99.90;;;;;;20820797;28;20573;-75
2021/04/28 03:15:23;;;;;;;8.52;5.60;;;6.80;99.90;;;;;;20829090;28;20038;-75
2021/04/28 03:25:28;;;;;;;12.48;6.72;;;6.50;99.90;;;;;;20818641;28;20035;-75
2021/04/28 03:35:32;;;;;;;11.82;6.95;;;6.50;99.90;;;;;;20833643;28;20033;-75
2021/04/28 03:45:53;;;;;;;11.95;6.63;;;6.30;99.90;;;;;;20834238;28;20046;-75
2021/04/28 03:56:06;;;;;;;14.82;6.43;;;6.40;99.90;;;;;;20832149;28;20040;-75
2021/04/28 04:06:07;;;;;;;13.52;6.85;;;6.50;99.90;;;;;;20831020;28;20068;-75
2021/04/28 04:16:09;;;;;;;14.68;6.80;;;6.40;99.90;;;;;;20838553;28;20112;-77
2021/04/28 04:26:10;;;;;;;12.77;5.47;;;6.10;99.90;;;;;;20839786;28;20029;-79
2021/04/28 04:36:44;;;;;;;13.80;5.80;;;6.20;99.90;;;;;;20864729;28;20037;-79
2021/04/28 04:47:03;;;;;;;9.48;5.85;;;8.00;99.90;;;;;;20878117;28;20060;-80
2021/04/28 04:57:04;;;;;;;10.07;5.70;;;8.10;99.90;;;;;;20944221;28;20048;-80
2021/04/28 05:07:05;;;;;;;8.60;5.47;;;8.40;99.90;;;;;;20878908;28;20032;-79
2021/04/28 05:17:06;;;;;;;12.40;5.37;;;8.60;99.90;;;;;;20897672;28;20637;-80
2021/04/28 05:27:07;;;;;;;10.87;5.93;;;8.40;99.90;;;;;;20919219;28;20032;-80
2021/04/28 05:37:11;;;;;;;15.17;8.27;;;8.70;99.90;;;;;;20896569;28;20052;-77
2021/04/28 05:47:12;;;;;;;17.15;9.02;;;8.90;99.90;;;;;;20833722;28;20087;-77
2021/04/28 05:57:15;;;;;;;13.20;6.95;;;9.30;99.90;;;;;;20835660;28;20033;-76
2021/04/28 06:07:16;;;;;;;17.92;7.80;;;9.80;99.90;;;;;;20871825;28;20038;-77
2021/04/28 06:17:18;;;;;;;11.20;7.00;;;10.30;99.90;;;;;;20880467;28;20040;-78
2021/04/28 06:27:19;;;;;;;18.00;7.65;;;10.20;99.90;;;;;;20927994;28;20045;-78
2021/04/28 06:37:20;;;;;;;19.73;7.70;;;10.00;99.90;;;;;;20928023;28;20041;-78
2021/04/28 06:47:21;;;;;;;11.70;7.45;;;10.00;99.90;;;;;;20930314;28;20029;-78
2021/04/28 06:57:22;;;;;;;17.10;8.48;;;10.00;99.90;;;;;;20940302;28;20032;-78
2021/04/28 07:07:22;;;;;;;19.60;8.50;;;10.70;99.90;;;;;;20938877;28;20044;-78
2021/04/28 07:17:23;;;;;;;14.43;8.00;;;11.50;99.90;;;;;;20935579;28;20033;-77
2021/04/28 07:27:25;;;;;;;17.65;8.65;;;12.60;99.90;;;;;;20937275;28;20136;-78
2021/04/28 07:37:26;;;;;;;15.57;8.43;;;13.00;99.90;;;;;;20939410;28;20029;-78
2021/04/28 07:47:26;;;;;;;15.40;8.50;;;13.20;99.90;;;;;;20937598;28;20059;-77
2021/04/28 07:57:27;;;;;;;15.40;9.25;;;13.50;99.90;;;;;;20935416;28;20032;-77
2021/04/28 08:07:28;;;;;;;15.15;8.27;;;13.50;99.90;;;;;;20930806;28;20075;-78
2021/04/28 08:17:29;;;;;;;14.85;8.88;;;14.40;99.90;;;;;;20923436;28;20028;-77
2021/04/28 08:27:30;;;;;;;17.33;9.63;;;14.40;99.90;;;;;;20921470;28;20063;-76
2021/04/28 08:37:31;;;;;;;15.25;8.90;;;15.10;99.90;;;;;;20921681;28;20506;-78
2021/04/28 08:47:32;;;;;;;18.30;9.73;;;15.80;99.90;;;;;;20923053;28;20404;-78
2021/04/28 08:57:34;;;;;;;16.07;9.07;;;16.70;99.90;;;;;;20921813;28;20036;-78
2021/04/28 09:07:35;;;;;;;25.03;8.77;;;17.10;99.90;;;;;;20922407;28;20511;-78
2021/04/28 09:17:56;;;;;;;21.77;9.53;;;17.20;99.90;;;;;;20920351;28;20036;-78
2021/04/28 09:28:36;;;;;;;15.85;9.00;;;18.60;99.90;;;;;;20921947;28;20037;-78
2021/04/28 09:38:49;;;;;;;15.02;8.45;;;19.50;99.90;;;;;;20921149;28;20112;-78
2021/04/28 09:49:07;;;;;;;14.23;8.40;;;21.10;99.90;;;;;;20920528;28;20074;-78
2021/04/28 09:59:09;;;;;;;17.52;8.98;;;21.30;99.90;;;;;;20921295;28;20025;-78
2021/04/28 10:09:38;;;;;;;16.63;8.87;;;21.80;99.90;;;;;;20920280;28;20037;-78
2021/04/28 10:19:39;;;;;;;15.55;9.30;;;22.40;97.50;;;;;;20918050;28;20092;-77
2021/04/28 10:29:40;;;;;;;15.97;10.03;;;22.60;96.90;;;;;;20938958;28;20393;-79
2021/04/28 10:39:47;;;;;;;14.07;7.43;;;23.40;92.90;;;;;;20937638;28;20051;-78
2021/04/28 10:50:08;;;;;;;15.63;8.38;;;23.10;88.00;;;;;;20938683;28;20714;-79
2021/04/28 11:00:21;;;;;;;17.10;7.70;;;23.50;86.60;;;;;;20938326;28;20033;-79
2021/04/28 11:10:34;;;;;;;17.38;8.40;;;23.00;85.00;;;;;;20938159;28;20050;-79
2021/04/28 11:20:35;;;;;;;11.00;6.38;;;22.30;90.50;;;;;;20935731;28;20024;-78
2021/04/28 11:30:40;;;;;;;6.50;4.83;;;22.30;83.60;;;;;;20932547;28;20491;-76
2021/04/28 11:41:26;;;;;;;14.60;5.47;;;24.20;81.60;;;;;;20932441;28;20163;-79
2021/04/28 11:51:30;;;;;;;12.00;6.95;;;24.70;79.00;;;;;;20912628;28;20049;-79
2021/04/28 12:01:31;;;;;;;11.20;6.55;;;22.50;83.40;;;;;;20927712;28;20068;-80
2021/04/28 12:11:32;;;;;;;12.50;5.95;;;23.10;83.90;;;;;;20925257;28;20029;-77
2021/04/28 12:21:33;;;;;;;8.93;5.00;;;23.60;80.90;;;;;;20929843;28;20036;-77
2021/04/28 12:31:48;;;;;;;18.77;5.13;;;23.40;80.90;;;;;;20927940;28;20057;-77
2021/04/28 12:41:49;;;;;;;12.75;5.75;;;22.50;80.80;;;;;;20917548;28;20037;-78
2021/04/28 12:51:54;;;;;;;6.85;3.60;;;23.10;83.00;;;;;;20913772;28;20037;-78
2021/04/28 13:02:00;;;;;;;7.75;4.15;;;23.20;79.30;;;;;;20919562;28;20040;-78
2021/04/28 13:12:01;;;;;;;6.90;4.57;;;23.30;82.60;;;;;;20901757;28;20033;-77
2021/04/28 13:22:13;;;;;;;9.40;4.03;;;23.20;82.30;;;;;;20833685;28;20026;-77
2021/04/28 13:32:26;;;;;;;;;;;22.60;80.40;;;;;;20835464;28;20113;-78
2021/04/28 13:42:27;;;;;;;;;;;23.10;77.10;;;;;;20841070;28;20342;-79
2021/04/28 13:52:28;;;;;;;10.07;3.27;;;22.30;82.90;;;;;;20837668;28;19913;-77
2021/04/28 14:02:29;;;;;;;7.83;2.83;;;22.50;82.50;;;;;;20835524;28;20029;-78
2021/04/28 14:12:30;;;;;;;8.00;3.47;;;21.10;84.30;;;;;;20837880;28;20397;-79
2021/04/28 14:22:31;;;;;;;6.03;3.70;;;21.40;85.40;;;;;;20839022;28;20036;-78
2021/04/28 14:32:33;;;;;;;11.97;3.40;;;20.90;83.60;;;;;;20838728;28;20033;-79
2021/04/28 14:42:34;;;;;;;11.10;4.10;;;20.20;91.90;;;;;;20840186;28;20037;-77
2021/04/28 14:52:34;;;;;;;11.20;3.90;;;21.20;91.80;;;;;;20842362;28;20053;-80
2021/04/28 15:02:35;;;;;;;8.67;3.73;;;21.60;92.30;;;;;;20841175;28;20029;-79
2021/04/28 15:12:36;;;;;;;6.87;3.53;;;20.50;92.50;;;;;;20851522;28;20033;-77
2021/04/28 15:22:38;;;;;;;9.33;3.90;;;20.40;94.20;;;;;;20856788;28;20029;-79
2021/04/28 15:32:39;;;;;;;9.43;3.77;;;20.30;93.90;;;;;;20853671;28;20088;-78
2021/04/28 15:42:40;;;;;;;4.90;3.47;;;20.30;93.80;;;;;;20852242;28;20084;-79
2021/04/28 15:52:41;;;;;;;;;;;19.90;94.70;;;;;;20852197;28;20036;-79
2021/04/28 16:02:42;;;;;;;11.57;3.93;;;19.40;96.60;;;;;;20898282;28;19959;-77
2021/04/28 16:12:45;;;;;;;9.07;3.70;;;19.00;97.00;;;;;;20976878;28;20405;-77
2021/04/28 16:22:46;;;;;;;12.40;4.15;;;18.50;99.90;;;;;;20898801;28;20125;-77
2021/04/28 16:32:47;;;;;;;8.05;3.70;;;18.10;99.90;;;;;;20868639;28;20040;-76
2021/04/28 16:42:48;;;;;;;10.57;4.60;;;17.90;99.90;;;;;;20822360;28;20037;-77
2021/04/28 16:52:49;;;;;;;11.73;4.18;;;17.80;99.90;;;;;;20859040;28;20071;-78
2021/04/28 17:02:50;;;;;;;8.30;3.60;;;17.40;99.90;;;;;;20902071;28;20033;-78
2021/04/28 17:12:51;;;;;;;6.47;3.87;;;17.40;99.90;;;;;;20876834;28;20033;-78
2021/04/28 17:22:51;;;;;;;7.75;4.10;;;17.50;99.90;;;;;;20818687;28;20392;-76
2021/04/28 17:32:54;;;;;;;10.90;3.30;;;17.30;99.90;;;;;;20822829;28;20182;-77
2021/04/28 17:42:55;;;;;;;13.05;4.88;;;17.10;99.90;;;;;;20883439;28;20091;-78
2021/04/28 17:52:56;;;;;;;9.93;4.57;;;16.90;99.90;;;;;;20858636;28;20063;-79
2021/04/28 18:02:58;;;;;;;13.15;5.95;;;16.60;99.90;;;;;;20853077;28;20061;-76
2021/04/28 18:12:59;;;;;;;;;;;16.20;99.90;;;;;;20818973;28;20045;-76
2021/04/28 18:23:00;;;;;;;2.57;1.93;;;15.70;99.90;;;;;;20807396;28;19913;-76
2021/04/28 18:33:01;;;;;;;2.07;0.80;;;15.00;99.90;;;;;;20806455;28;20387;-78
2021/04/28 18:43:02;;;;;;;1.10;0.90;;;14.70;99.90;;;;;;20808047;28;20041;-77
2021/04/28 18:53:03;;;;;;;1.27;1.05;;;14.40;99.90;;;;;;20805903;28;20045;-78
2021/04/28 19:03:06;;;;;;;1.75;1.27;;;14.10;99.90;;;;;;20888788;28;20422;-78
2021/04/28 19:13:07;;;;;;;5.50;2.15;;;13.90;99.90;;;;;;20854701;28;20033;-78
2021/04/28 19:23:09;;;;;;;2.10;1.52;;;13.70;99.90;;;;;;20893573;28;20033;-76
2021/04/28 19:33:10;;;;;;;3.33;1.60;;;13.70;99.90;;;;;;20901504;28;20033;-79
2021/04/28 19:43:10;;;;;;;4.75;1.92;;;13.60;99.90;;;;;;20902084;28;20041;-79
2021/04/28 19:53:11;;;;;;;1.90;1.70;;;13.30;99.90;;;;;;20872543;28;20411;-78
2021/04/28 20:03:15;;;;;;;2.47;1.45;;;12.90;99.90;;;;;;20797673;28;20128;-78
2021/04/28 20:13:16;;;;;;;1.83;1.30;;;12.90;99.90;;;;;;20860096;28;20399;-79
2021/04/28 20:23:18;;;;;;;3.35;1.30;;;13.20;99.90;;;;;;20873015;28;20033;-78
2021/04/28 20:33:20;;;;;;;2.10;1.30;;;13.40;99.90;;;;;;20872167;28;20105;-79
2021/04/28 20:43:21;;;;;;;1.98;1.45;;;13.40;99.90;;;;;;20872922;28;20061;-78
2021/04/28 20:53:22;;;;;;;2.42;1.77;;;13.00;99.90;;;;;;20872870;28;20044;-79
2021/04/28 21:03:24;;;;;;;1.70;1.20;;;12.50;99.90;;;;;;20879817;28;20112;-77
2021/04/28 21:13:25;;;;;;;3.03;1.10;;;12.70;99.90;;;;;;20876517;28;20056;-78
2021/04/28 21:23:26;;;;;;;4.00;2.57;;;12.90;99.90;;;;;;20870743;28;20026;-77
2021/04/28 21:33:28;;;;;;;3.43;2.30;;;12.60;99.90;;;;;;20861272;28;20029;-77
2021/04/28 21:43:29;;;;;;;;;;;12.40;99.90;;;;;;20915884;28;20096;-78
2021/04/28 21:53:30;;;;;;;4.68;1.80;;;12.60;99.90;;;;;;20912878;28;19920;-77
2021/04/28 22:03:31;;;;;;;2.63;1.80;;;12.80;99.90;;;;;;20911654;28;20129;-77
2021/04/28 22:13:32;;;;;;;2.70;2.10;;;12.80;99.90;;;;;;20910447;28;20407;-77
2021/04/28 22:23:33;;;;;;;7.40;3.70;;;12.60;99.90;;;;;;20923701;28;20033;-77
2021/04/28 22:33:34;;;;;;;6.35;4.13;;;12.40;99.90;;;;;;20907962;28;20131;-77
2021/04/28 22:43:35;;;;;;;8.07;4.43;;;12.20;99.90;;;;;;20925388;28;20511;-78
2021/04/28 22:53:36;;;;;;;8.57;4.83;;;12.10;99.90;;;;;;20928681;28;20033;-77
2021/04/28 23:03:37;;;;;;;7.60;4.85;;;12.00;99.90;;;;;;20925903;28;20120;-77
2021/04/28 23:13:38;;;;;;;8.90;6.07;;;11.90;99.90;;;;;;20925909;28;20045;-77
2021/04/28 23:23:39;;;;;;;10.43;6.73;;;11.80;99.90;;;;;;20924881;28;20484;-77
2021/04/28 23:33:40;;;;;;;9.07;5.80;;;11.80;99.90;;;;;;20920721;28;20131;-77
2021/04/28 23:43:41;;;;;;;12.25;6.75;;;11.80;99.90;;;;;;20924775;28;20086;-78
2021/04/28 23:53:45;;;;;;;10.03;7.00;;;11.70;99.90;;;;;;20923853;28;20063;-77
